sensor_id;sensor_type;location;lat;lon;timestamp;P1;durP1;ratioP1;P2;durP2;ratioP2
64313;SDS011;50650;48.180;11.524;2023-03-01T00:01:25;17.23;;;9.80;;
64313;SDS011;50650;48.180;11.524;2023-03-01T00:03:52;14.25;;;9.40;;
64313;SDS011;50650;48.180;11.524;2023-03-01T00:06:20;18.15;;;10.30;;
64313;SDS011;50650;48.180;11.524;2023-03-01T00:08:47;17.10;;;9.50;;
64313;SDS011;50650;48.180;11.524;2023-03-01T00:11:15;14.95;;;9.80;;
64313;SDS011;50650;48.180;11.524;2023-03-01T00:13:44;15.13;;;9.35;;
64313;SDS011;50650;48.180;11.524;2023-03-01T00:16:12;14.63;;;9.50;;
64313;SDS011;50650;48.180;11.524;2023-03-01T00:18:40;16.75;;;9.68;;
64313;SDS011;50650;48.180;11.524;2023-03-01T00:21:07;15.65;;;10.43;;
64313;SDS011;50650;48.180;11.524;2023-03-01T00:23:34;18.40;;;10.50;;
64313;SDS011;50650;48.180;11.524;2023-03-01T00:26:01;20.50;;;10.68;;
64313;SDS011;50650;48.180;11.524;2023-03-01T00:28:27;15.43;;;9.05;;
64313;SDS011;50650;48.180;11.524;2023-03-01T00:30:55;16.30;;;10.40;;
64313;SDS011;50650;48.180;11.524;2023-03-01T00:33:22;15.35;;;9.88;;
64313;SDS011;50650;48.180;11.524;2023-03-01T00:35:48;16.52;;;10.05;;
64313;SDS011;50650;48.180;11.524;2023-03-01T00:38:15;16.02;;;9.45;;
64313;SDS011;50650;48.180;11.524;2023-03-01T00:40:41;15.80;;;9.27;;
64313;SDS011;50650;48.180;11.524;2023-03-01T00:43:08;16.20;;;10.02;;
64313;SDS011;50650;48.180;11.524;2023-03-01T00:45:35;15.48;;;9.57;;
64313;SDS011;50650;48.180;11.524;2023-03-01T00:48:03;16.77;;;10.20;;
64313;SDS011;50650;48.180;11.524;2023-03-01T00:50:30;16.17;;;10.48;;
64313;SDS011;50650;48.180;11.524;2023-03-01T00:52:56;16.27;;;9.52;;
64313;SDS011;50650;48.180;11.524;2023-03-01T00:55:23;18.20;;;9.60;;
64313;SDS011;50650;48.180;11.524;2023-03-01T00:57:50;16.23;;;9.80;;
64313;SDS011;50650;48.180;11.524;2023-03-01T01:00:17;16.98;;;9.95;;
64313;SDS011;50650;48.180;11.524;2023-03-01T01:02:44;16.52;;;9.90;;
64313;SDS011;50650;48.180;11.524;2023-03-01T01:05:12;16.88;;;8.88;;
64313;SDS011;50650;48.180;11.524;2023-03-01T01:07:38;15.18;;;9.80;;
64313;SDS011;50650;48.180;11.524;2023-03-01T01:10:05;18.42;;;10.25;;
64313;SDS011;50650;48.180;11.524;2023-03-01T01:12:32;19.23;;;10.30;;
64313;SDS011;50650;48.180;11.524;2023-03-01T01:14:59;17.83;;;9.63;;
64313;SDS011;50650;48.180;11.524;2023-03-01T01:17:25;18.55;;;9.65;;
64313;SDS011;50650;48.180;11.524;2023-03-01T01:19:52;19.10;;;9.95;;
64313;SDS011;50650;48.180;11.524;2023-03-01T01:22:19;17.05;;;9.52;;
64313;SDS011;50650;48.180;11.524;2023-03-01T01:24:46;17.70;;;10.02;;
64313;SDS011;50650;48.180;11.524;2023-03-01T01:27:12;16.02;;;9.55;;
64313;SDS011;50650;48.180;11.524;2023-03-01T01:29:39;15.60;;;10.20;;
64313;SDS011;50650;48.180;11.524;2023-03-01T01:32:06;17.55;;;10.00;;
64313;SDS011;50650;48.180;11.524;2023-03-01T01:34:33;16.95;;;9.82;;
64313;SDS011;50650;48.180;11.524;2023-03-01T01:36:59;17.38;;;10.18;;
64313;SDS011;50650;48.180;11.524;2023-03-01T01:39:29;17.42;;;9.52;;
64313;SDS011;50650;48.180;11.524;2023-03-01T01:41:55;17.40;;;9.95;;
64313;SDS011;50650;48.180;11.524;2023-03-01T01:44:23;17.52;;;10.68;;
64313;SDS011;50650;48.180;11.524;2023-03-01T01:46:50;14.75;;;9.35;;
64313;SDS011;50650;48.180;11.524;2023-03-01T01:49:21;18.30;;;10.48;;
64313;SDS011;50650;48.180;11.524;2023-03-01T01:51:53;16.67;;;9.38;;
64313;SDS011;50650;48.180;11.524;2023-03-01T01:54:24;14.88;;;9.73;;
64313;SDS011;50650;48.180;11.524;2023-03-01T01:56:56;14.82;;;9.65;;
64313;SDS011;50650;48.180;11.524;2023-03-01T01:59:26;16.45;;;10.48;;
64313;SDS011;50650;48.180;11.524;2023-03-01T02:01:54;18.52;;;10.30;;
64313;SDS011;50650;48.180;11.524;2023-03-01T02:04:21;19.38;;;10.95;;
64313;SDS011;50650;48.180;11.524;2023-03-01T02:06:48;18.27;;;10.13;;
64313;SDS011;50650;48.180;11.524;2023-03-01T02:09:16;17.20;;;9.55;;
64313;SDS011;50650;48.180;11.524;2023-03-01T02:11:45;15.95;;;9.00;;
64313;SDS011;50650;48.180;11.524;2023-03-01T02:14:13;17.02;;;10.18;;
64313;SDS011;50650;48.180;11.524;2023-03-01T02:16:40;15.20;;;9.90;;
64313;SDS011;50650;48.180;11.524;2023-03-01T02:19:07;15.55;;;9.70;;
64313;SDS011;50650;48.180;11.524;2023-03-01T02:21:37;20.55;;;10.82;;
64313;SDS011;50650;48.180;11.524;2023-03-01T02:24:10;16.65;;;9.60;;
64313;SDS011;50650;48.180;11.524;2023-03-01T02:26:45;17.33;;;10.27;;
64313;SDS011;50650;48.180;11.524;2023-03-01T02:29:14;18.38;;;9.60;;
64313;SDS011;50650;48.180;11.524;2023-03-01T02:31:41;18.85;;;10.80;;
64313;SDS011;50650;48.180;11.524;2023-03-01T02:34:06;17.45;;;9.68;;
64313;SDS011;50650;48.180;11.524;2023-03-01T02:36:34;17.55;;;9.13;;
64313;SDS011;50650;48.180;11.524;2023-03-01T02:39:03;15.82;;;9.32;;
64313;SDS011;50650;48.180;11.524;2023-03-01T02:41:33;18.42;;;10.55;;
64313;SDS011;50650;48.180;11.524;2023-03-01T02:44:01;19.30;;;9.80;;
64313;SDS011;50650;48.180;11.524;2023-03-01T02:46:29;16.75;;;9.63;;
64313;SDS011;50650;48.180;11.524;2023-03-01T02:48:56;16.88;;;9.73;;
64313;SDS011;50650;48.180;11.524;2023-03-01T02:51:31;18.23;;;10.40;;
64313;SDS011;50650;48.180;11.524;2023-03-01T02:54:11;18.83;;;10.05;;
64313;SDS011;50650;48.180;11.524;2023-03-01T02:56:42;16.10;;;10.05;;
64313;SDS011;50650;48.180;11.524;2023-03-01T02:59:09;18.35;;;10.50;;
64313;SDS011;50650;48.180;11.524;2023-03-01T03:01:37;14.98;;;8.68;;
64313;SDS011;50650;48.180;11.524;2023-03-01T03:04:04;16.23;;;9.73;;
64313;SDS011;50650;48.180;11.524;2023-03-01T03:06:31;16.27;;;10.02;;
64313;SDS011;50650;48.180;11.524;2023-03-01T03:08:58;17.40;;;9.90;;
64313;SDS011;50650;48.180;11.524;2023-03-01T03:11:25;21.83;;;10.00;;
64313;SDS011;50650;48.180;11.524;2023-03-01T03:13:52;16.13;;;10.55;;
64313;SDS011;50650;48.180;11.524;2023-03-01T03:16:18;17.55;;;10.90;;
64313;SDS011;50650;48.180;11.524;2023-03-01T03:18:47;15.57;;;9.75;;
64313;SDS011;50650;48.180;11.524;2023-03-01T03:21:14;18.58;;;10.38;;
64313;SDS011;50650;48.180;11.524;2023-03-01T03:23:41;17.45;;;10.10;;
64313;SDS011;50650;48.180;11.524;2023-03-01T03:26:07;18.02;;;9.70;;
64313;SDS011;50650;48.180;11.524;2023-03-01T03:28:38;18.75;;;10.75;;
64313;SDS011;50650;48.180;11.524;2023-03-01T03:31:05;16.70;;;9.82;;
64313;SDS011;50650;48.180;11.524;2023-03-01T03:33:32;17.10;;;10.52;;
64313;SDS011;50650;48.180;11.524;2023-03-01T03:36:00;14.23;;;9.10;;
64313;SDS011;50650;48.180;11.524;2023-03-01T03:38:26;15.20;;;10.00;;
64313;SDS011;50650;48.180;11.524;2023-03-01T03:41:00;18.00;;;10.68;;
64313;SDS011;50650;48.180;11.524;2023-03-01T03:43:31;17.90;;;10.20;;
64313;SDS011;50650;48.180;11.524;2023-03-01T03:45:59;19.23;;;10.93;;
64313;SDS011;50650;48.180;11.524;2023-03-01T03:48:26;17.17;;;10.50;;
64313;SDS011;50650;48.180;11.524;2023-03-01T03:50:53;18.45;;;10.63;;
64313;SDS011;50650;48.180;11.524;2023-03-01T03:53:22;17.65;;;10.35;;
64313;SDS011;50650;48.180;11.524;2023-03-01T03:55:50;17.65;;;10.00;;
64313;SDS011;50650;48.180;11.524;2023-03-01T03:58:17;18.42;;;11.13;;
64313;SDS011;50650;48.180;11.524;2023-03-01T04:00:45;17.17;;;9.82;;
64313;SDS011;50650;48.180;11.524;2023-03-01T04:03:13;20.02;;;10.00;;
64313;SDS011;50650;48.180;11.524;2023-03-01T04:05:41;16.95;;;10.82;;
64313;SDS011;50650;48.180;11.524;2023-03-01T04:08:08;18.00;;;9.75;;
64313;SDS011;50650;48.180;11.524;2023-03-01T04:10:36;17.73;;;10.93;;
64313;SDS011;50650;48.180;11.524;2023-03-01T04:13:04;18.15;;;10.18;;
64313;SDS011;50650;48.180;11.524;2023-03-01T04:15:31;19.65;;;10.07;;
64313;SDS011;50650;48.180;11.524;2023-03-01T04:17:58;18.25;;;10.82;;
64313;SDS011;50650;48.180;11.524;2023-03-01T04:20:26;15.40;;;10.25;;
64313;SDS011;50650;48.180;11.524;2023-03-01T04:22:56;18.85;;;10.07;;
64313;SDS011;50650;48.180;11.524;2023-03-01T04:25:24;19.83;;;11.10;;
64313;SDS011;50650;48.180;11.524;2023-03-01T04:27:51;18.15;;;9.48;;
64313;SDS011;50650;48.180;11.524;2023-03-01T04:30:18;19.52;;;11.00;;
64313;SDS011;50650;48.180;11.524;2023-03-01T04:32:45;18.50;;;10.50;;
64313;SDS011;50650;48.180;11.524;2023-03-01T04:35:11;14.30;;;8.40;;
64313;SDS011;50650;48.180;11.524;2023-03-01T04:37:38;18.05;;;9.88;;
64313;SDS011;50650;48.180;11.524;2023-03-01T04:40:07;17.52;;;10.23;;
64313;SDS011;50650;48.180;11.524;2023-03-01T04:42:40;17.05;;;10.77;;
64313;SDS011;50650;48.180;11.524;2023-03-01T04:45:09;15.82;;;10.23;;
64313;SDS011;50650;48.180;11.524;2023-03-01T04:47:38;19.70;;;11.00;;
64313;SDS011;50650;48.180;11.524;2023-03-01T04:50:06;17.58;;;11.07;;
64313;SDS011;50650;48.180;11.524;2023-03-01T04:52:33;16.75;;;10.25;;
64313;SDS011;50650;48.180;11.524;2023-03-01T04:55:00;16.70;;;9.95;;
64313;SDS011;50650;48.180;11.524;2023-03-01T04:57:26;18.20;;;10.25;;
64313;SDS011;50650;48.180;11.524;2023-03-01T04:59:53;16.48;;;9.93;;
64313;SDS011;50650;48.180;11.524;2023-03-01T05:02:20;17.35;;;9.82;;
64313;SDS011;50650;48.180;11.524;2023-03-01T05:04:47;15.27;;;9.75;;
64313;SDS011;50650;48.180;11.524;2023-03-01T05:07:13;15.82;;;9.90;;
64313;SDS011;50650;48.180;11.524;2023-03-01T05:09:44;20.02;;;11.48;;
64313;SDS011;50650;48.180;11.524;2023-03-01T05:12:10;19.20;;;11.00;;
64313;SDS011;50650;48.180;11.524;2023-03-01T05:14:37;18.23;;;10.93;;
64313;SDS011;50650;48.180;11.524;2023-03-01T05:17:04;15.98;;;9.93;;
64313;SDS011;50650;48.180;11.524;2023-03-01T05:19:32;19.38;;;11.15;;
64313;SDS011;50650;48.180;11.524;2023-03-01T05:21:58;17.13;;;10.07;;
64313;SDS011;50650;48.180;11.524;2023-03-01T05:24:29;16.75;;;9.73;;
64313;SDS011;50650;48.180;11.524;2023-03-01T05:26:57;18.15;;;10.10;;
64313;SDS011;50650;48.180;11.524;2023-03-01T05:29:24;17.25;;;9.65;;
64313;SDS011;50650;48.180;11.524;2023-03-01T05:31:51;16.60;;;9.55;;
64313;SDS011;50650;48.180;11.524;2023-03-01T05:34:19;18.23;;;10.35;;
64313;SDS011;50650;48.180;11.524;2023-03-01T05:36:50;18.25;;;10.68;;
64313;SDS011;50650;48.180;11.524;2023-03-01T05:39:18;21.02;;;10.60;;
64313;SDS011;50650;48.180;11.524;2023-03-01T05:41:44;17.20;;;10.20;;
64313;SDS011;50650;48.180;11.524;2023-03-01T05:44:11;19.30;;;10.27;;
64313;SDS011;50650;48.180;11.524;2023-03-01T05:46:38;23.25;;;9.93;;
64313;SDS011;50650;48.180;11.524;2023-03-01T05:49:04;23.70;;;9.18;;
64313;SDS011;50650;48.180;11.524;2023-03-01T05:51:31;17.85;;;10.77;;
64313;SDS011;50650;48.180;11.524;2023-03-01T05:54:00;19.90;;;10.70;;
64313;SDS011;50650;48.180;11.524;2023-03-01T05:56:26;14.73;;;9.77;;
64313;SDS011;50650;48.180;11.524;2023-03-01T05:58:54;17.83;;;10.68;;
64313;SDS011;50650;48.180;11.524;2023-03-01T06:01:20;17.17;;;10.45;;
64313;SDS011;50650;48.180;11.524;2023-03-01T06:03:47;16.17;;;10.30;;
64313;SDS011;50650;48.180;11.524;2023-03-01T06:06:13;20.23;;;10.98;;
64313;SDS011;50650;48.180;11.524;2023-03-01T06:08:39;18.80;;;11.07;;
64313;SDS011;50650;48.180;11.524;2023-03-01T06:11:07;19.35;;;10.60;;
64313;SDS011;50650;48.180;11.524;2023-03-01T06:13:34;20.75;;;9.35;;
64313;SDS011;50650;48.180;11.524;2023-03-01T06:16:00;18.83;;;10.05;;
64313;SDS011;50650;48.180;11.524;2023-03-01T06:18:26;16.50;;;10.40;;
64313;SDS011;50650;48.180;11.524;2023-03-01T06:20:56;17.70;;;10.85;;
64313;SDS011;50650;48.180;11.524;2023-03-01T06:23:22;16.33;;;9.57;;
64313;SDS011;50650;48.180;11.524;2023-03-01T06:25:49;17.85;;;10.73;;
64313;SDS011;50650;48.180;11.524;2023-03-01T06:28:17;20.02;;;9.55;;
64313;SDS011;50650;48.180;11.524;2023-03-01T06:30:44;18.38;;;10.95;;
64313;SDS011;50650;48.180;11.524;2023-03-01T06:33:11;18.65;;;10.65;;
64313;SDS011;50650;48.180;11.524;2023-03-01T06:35:38;21.23;;;10.05;;
64313;SDS011;50650;48.180;11.524;2023-03-01T06:38:05;22.17;;;10.45;;
64313;SDS011;50650;48.180;11.524;2023-03-01T06:40:31;16.27;;;10.05;;
64313;SDS011;50650;48.180;11.524;2023-03-01T06:43:00;18.50;;;10.18;;
64313;SDS011;50650;48.180;11.524;2023-03-01T06:45:28;17.50;;;10.60;;
64313;SDS011;50650;48.180;11.524;2023-03-01T06:48:03;18.23;;;10.75;;
64313;SDS011;50650;48.180;11.524;2023-03-01T06:50:30;18.00;;;10.55;;
64313;SDS011;50650;48.180;11.524;2023-03-01T06:52:57;18.17;;;10.73;;
64313;SDS011;50650;48.180;11.524;2023-03-01T06:55:24;23.25;;;11.18;;
64313;SDS011;50650;48.180;11.524;2023-03-01T06:57:53;17.17;;;10.70;;
64313;SDS011;50650;48.180;11.524;2023-03-01T07:00:21;19.95;;;10.50;;
64313;SDS011;50650;48.180;11.524;2023-03-01T07:02:49;17.02;;;10.32;;
64313;SDS011;50650;48.180;11.524;2023-03-01T07:05:16;21.02;;;11.40;;
64313;SDS011;50650;48.180;11.524;2023-03-01T07:07:42;20.90;;;10.50;;
64313;SDS011;50650;48.180;11.524;2023-03-01T07:10:12;26.02;;;10.88;;
64313;SDS011;50650;48.180;11.524;2023-03-01T07:12:41;20.10;;;9.85;;
64313;SDS011;50650;48.180;11.524;2023-03-01T07:15:08;17.02;;;11.07;;
64313;SDS011;50650;48.180;11.524;2023-03-01T07:17:35;21.55;;;11.18;;
64313;SDS011;50650;48.180;11.524;2023-03-01T07:20:04;21.05;;;9.95;;
64313;SDS011;50650;48.180;11.524;2023-03-01T07:22:30;21.67;;;11.05;;
64313;SDS011;50650;48.180;11.524;2023-03-01T07:24:57;17.75;;;11.20;;
64313;SDS011;50650;48.180;11.524;2023-03-01T07:27:24;19.17;;;11.20;;
64313;SDS011;50650;48.180;11.524;2023-03-01T07:29:50;20.73;;;11.13;;
64313;SDS011;50650;48.180;11.524;2023-03-01T07:32:16;24.27;;;11.52;;
64313;SDS011;50650;48.180;11.524;2023-03-01T07:34:43;21.17;;;11.48;;
64313;SDS011;50650;48.180;11.524;2023-03-01T07:37:11;17.60;;;11.07;;
64313;SDS011;50650;48.180;11.524;2023-03-01T07:39:38;20.38;;;11.82;;
64313;SDS011;50650;48.180;11.524;2023-03-01T07:42:07;17.60;;;10.55;;
64313;SDS011;50650;48.180;11.524;2023-03-01T07:44:33;17.05;;;10.27;;
64313;SDS011;50650;48.180;11.524;2023-03-01T07:47:00;29.40;;;11.65;;
64313;SDS011;50650;48.180;11.524;2023-03-01T07:49:26;25.73;;;11.50;;
64313;SDS011;50650;48.180;11.524;2023-03-01T07:51:53;21.33;;;11.23;;
64313;SDS011;50650;48.180;11.524;2023-03-01T07:54:21;21.05;;;12.20;;
64313;SDS011;50650;48.180;11.524;2023-03-01T07:56:47;17.88;;;11.15;;
64313;SDS011;50650;48.180;11.524;2023-03-01T07:59:14;23.90;;;11.85;;
64313;SDS011;50650;48.180;11.524;2023-03-01T08:01:40;19.92;;;11.00;;
64313;SDS011;50650;48.180;11.524;2023-03-01T08:04:09;17.38;;;10.75;;
64313;SDS011;50650;48.180;11.524;2023-03-01T08:06:36;21.10;;;10.70;;
64313;SDS011;50650;48.180;11.524;2023-03-01T08:09:02;17.90;;;10.90;;
64313;SDS011;50650;48.180;11.524;2023-03-01T08:11:30;22.27;;;11.77;;
64313;SDS011;50650;48.180;11.524;2023-03-01T08:13:56;19.15;;;10.75;;
64313;SDS011;50650;48.180;11.524;2023-03-01T08:16:23;20.67;;;11.65;;
64313;SDS011;50650;48.180;11.524;2023-03-01T08:18:49;20.67;;;10.88;;
64313;SDS011;50650;48.180;11.524;2023-03-01T08:21:16;19.88;;;11.38;;
64313;SDS011;50650;48.180;11.524;2023-03-01T08:23:43;18.58;;;10.43;;
64313;SDS011;50650;48.180;11.524;2023-03-01T08:26:10;21.63;;;11.40;;
64313;SDS011;50650;48.180;11.524;2023-03-01T08:28:39;21.77;;;11.10;;
64313;SDS011;50650;48.180;11.524;2023-03-01T08:31:13;20.38;;;11.18;;
64313;SDS011;50650;48.180;11.524;2023-03-01T08:33:39;20.40;;;11.23;;
64313;SDS011;50650;48.180;11.524;2023-03-01T08:36:06;21.48;;;11.25;;
64313;SDS011;50650;48.180;11.524;2023-03-01T08:38:33;19.00;;;10.55;;
64313;SDS011;50650;48.180;11.524;2023-03-01T08:41:00;20.77;;;11.93;;
64313;SDS011;50650;48.180;11.524;2023-03-01T08:43:30;21.00;;;11.68;;
64313;SDS011;50650;48.180;11.524;2023-03-01T08:45:59;20.35;;;11.40;;
64313;SDS011;50650;48.180;11.524;2023-03-01T08:48:31;19.92;;;10.80;;
64313;SDS011;50650;48.180;11.524;2023-03-01T08:51:06;19.55;;;10.88;;
64313;SDS011;50650;48.180;11.524;2023-03-01T08:53:33;18.17;;;11.50;;
64313;SDS011;50650;48.180;11.524;2023-03-01T08:55:59;22.17;;;12.25;;
64313;SDS011;50650;48.180;11.524;2023-03-01T08:58:27;22.08;;;10.73;;
64313;SDS011;50650;48.180;11.524;2023-03-01T09:00:54;23.13;;;11.50;;
64313;SDS011;50650;48.180;11.524;2023-03-01T09:03:22;24.90;;;11.23;;
64313;SDS011;50650;48.180;11.524;2023-03-01T09:05:49;27.85;;;12.20;;
64313;SDS011;50650;48.180;11.524;2023-03-01T09:08:16;27.52;;;12.23;;
64313;SDS011;50650;48.180;11.524;2023-03-01T09:10:42;21.55;;;11.85;;
64313;SDS011;50650;48.180;11.524;2023-03-01T09:13:11;23.42;;;12.00;;
64313;SDS011;50650;48.180;11.524;2023-03-01T09:15:38;20.92;;;11.75;;
64313;SDS011;50650;48.180;11.524;2023-03-01T09:18:04;19.13;;;11.48;;
64313;SDS011;50650;48.180;11.524;2023-03-01T09:20:34;20.08;;;11.25;;
64313;SDS011;50650;48.180;11.524;2023-03-01T09:23:03;19.60;;;11.30;;
64313;SDS011;50650;48.180;11.524;2023-03-01T09:25:29;19.13;;;11.65;;
64313;SDS011;50650;48.180;11.524;2023-03-01T09:27:56;23.55;;;11.68;;
64313;SDS011;50650;48.180;11.524;2023-03-01T09:30:22;23.52;;;11.88;;
64313;SDS011;50650;48.180;11.524;2023-03-01T09:32:49;17.42;;;11.30;;
64313;SDS011;50650;48.180;11.524;2023-03-01T09:35:15;22.20;;;10.98;;
64313;SDS011;50650;48.180;11.524;2023-03-01T09:37:46;18.42;;;10.73;;
64313;SDS011;50650;48.180;11.524;2023-03-01T09:40:15;24.38;;;11.23;;
64313;SDS011;50650;48.180;11.524;2023-03-01T09:42:48;31.10;;;13.15;;
64313;SDS011;50650;48.180;11.524;2023-03-01T09:45:25;19.10;;;10.65;;
64313;SDS011;50650;48.180;11.524;2023-03-01T09:47:53;19.20;;;10.90;;
64313;SDS011;50650;48.180;11.524;2023-03-01T09:50:20;19.17;;;10.48;;
64313;SDS011;50650;48.180;11.524;2023-03-01T09:52:50;16.77;;;11.23;;
64313;SDS011;50650;48.180;11.524;2023-03-01T09:55:23;19.40;;;10.75;;
64313;SDS011;50650;48.180;11.524;2023-03-01T09:57:53;23.48;;;11.52;;
64313;SDS011;50650;48.180;11.524;2023-03-01T10:00:33;16.02;;;10.50;;
64313;SDS011;50650;48.180;11.524;2023-03-01T10:03:07;24.15;;;10.68;;
64313;SDS011;50650;48.180;11.524;2023-03-01T10:05:40;19.65;;;10.52;;
64313;SDS011;50650;48.180;11.524;2023-03-01T10:11:23;22.30;;;10.90;;
64313;SDS011;50650;48.180;11.524;2023-03-01T10:13:58;21.95;;;11.95;;
64313;SDS011;50650;48.180;11.524;2023-03-01T10:16:28;21.02;;;12.25;;
64313;SDS011;50650;48.180;11.524;2023-03-01T10:19:03;18.48;;;11.07;;
64313;SDS011;50650;48.180;11.524;2023-03-01T10:21:39;21.35;;;11.60;;
64313;SDS011;50650;48.180;11.524;2023-03-01T10:24:10;21.42;;;11.52;;
64313;SDS011;50650;48.180;11.524;2023-03-01T10:26:40;22.27;;;12.52;;
64313;SDS011;50650;48.180;11.524;2023-03-01T10:29:13;20.30;;;11.88;;
64313;SDS011;50650;48.180;11.524;2023-03-01T10:31:45;18.17;;;11.63;;
64313;SDS011;50650;48.180;11.524;2023-03-01T10:34:14;20.67;;;12.35;;
64313;SDS011;50650;48.180;11.524;2023-03-01T10:36:42;19.60;;;11.48;;
64313;SDS011;50650;48.180;11.524;2023-03-01T10:39:18;17.10;;;11.70;;
64313;SDS011;50650;48.180;11.524;2023-03-01T10:41:54;20.98;;;11.88;;
64313;SDS011;50650;48.180;11.524;2023-03-01T10:44:38;18.95;;;10.95;;
64313;SDS011;50650;48.180;11.524;2023-03-01T10:47:18;19.67;;;11.05;;
64313;SDS011;50650;48.180;11.524;2023-03-01T10:49:53;22.33;;;11.90;;
64313;SDS011;50650;48.180;11.524;2023-03-01T10:52:22;21.85;;;12.45;;
64313;SDS011;50650;48.180;11.524;2023-03-01T10:54:53;35.88;;;13.70;;
64313;SDS011;50650;48.180;11.524;2023-03-01T11:00:19;20.95;;;12.73;;
64313;SDS011;50650;48.180;11.524;2023-03-01T11:02:49;20.55;;;11.85;;
64313;SDS011;50650;48.180;11.524;2023-03-01T11:05:19;22.00;;;12.25;;
64313;SDS011;50650;48.180;11.524;2023-03-01T11:07:49;20.67;;;11.85;;
64313;SDS011;50650;48.180;11.524;2023-03-01T11:10:18;21.77;;;12.35;;
64313;SDS011;50650;48.180;11.524;2023-03-01T11:12:46;19.15;;;12.38;;
64313;SDS011;50650;48.180;11.524;2023-03-01T11:15:19;20.63;;;12.63;;
64313;SDS011;50650;48.180;11.524;2023-03-01T11:17:47;18.05;;;11.68;;
64313;SDS011;50650;48.180;11.524;2023-03-01T11:20:17;23.92;;;12.05;;
64313;SDS011;50650;48.180;11.524;2023-03-01T11:22:47;19.50;;;11.68;;
64313;SDS011;50650;48.180;11.524;2023-03-01T11:25:16;18.60;;;12.38;;
64313;SDS011;50650;48.180;11.524;2023-03-01T11:27:48;18.35;;;11.80;;
64313;SDS011;50650;48.180;11.524;2023-03-01T11:30:15;18.60;;;11.00;;
64313;SDS011;50650;48.180;11.524;2023-03-01T11:32:45;21.75;;;11.65;;
64313;SDS011;50650;48.180;11.524;2023-03-01T11:35:17;20.10;;;12.48;;
64313;SDS011;50650;48.180;11.524;2023-03-01T11:37:48;19.95;;;12.55;;
64313;SDS011;50650;48.180;11.524;2023-03-01T11:40:24;22.95;;;11.35;;
64313;SDS011;50650;48.180;11.524;2023-03-01T11:42:55;23.55;;;11.82;;
64313;SDS011;50650;48.180;11.524;2023-03-01T11:45:29;19.40;;;12.63;;
64313;SDS011;50650;48.180;11.524;2023-03-01T11:48:11;22.10;;;12.52;;
64313;SDS011;50650;48.180;11.524;2023-03-01T11:50:52;20.55;;;12.75;;
64313;SDS011;50650;48.180;11.524;2023-03-01T11:53:23;22.55;;;11.82;;
64313;SDS011;50650;48.180;11.524;2023-03-01T11:56:05;19.45;;;12.32;;
64313;SDS011;50650;48.180;11.524;2023-03-01T11:58:59;25.00;;;12.15;;
64313;SDS011;50650;48.180;11.524;2023-03-01T12:01:32;21.30;;;12.48;;
64313;SDS011;50650;48.180;11.524;2023-03-01T12:06:55;21.20;;;12.57;;
64313;SDS011;50650;48.180;11.524;2023-03-01T12:09:26;20.45;;;11.60;;
64313;SDS011;50650;48.180;11.524;2023-03-01T12:12:15;19.35;;;12.70;;
64313;SDS011;50650;48.180;11.524;2023-03-01T12:15:25;23.52;;;12.38;;
64313;SDS011;50650;48.180;11.524;2023-03-01T12:20:39;20.73;;;12.35;;
64313;SDS011;50650;48.180;11.524;2023-03-01T12:26:02;17.73;;;11.98;;
64313;SDS011;50650;48.180;11.524;2023-03-01T12:28:46;19.50;;;12.68;;
64313;SDS011;50650;48.180;11.524;2023-03-01T12:31:33;22.33;;;12.52;;
64313;SDS011;50650;48.180;11.524;2023-03-01T12:34:09;30.65;;;13.70;;
64313;SDS011;50650;48.180;11.524;2023-03-01T12:36:46;20.65;;;13.13;;
64313;SDS011;50650;48.180;11.524;2023-03-01T12:39:24;21.42;;;12.13;;
64313;SDS011;50650;48.180;11.524;2023-03-01T12:42:01;33.20;;;14.10;;
64313;SDS011;50650;48.180;11.524;2023-03-01T12:44:35;25.33;;;13.35;;
64313;SDS011;50650;48.180;11.524;2023-03-01T12:47:15;20.05;;;12.95;;
64313;SDS011;50650;48.180;11.524;2023-03-01T12:49:48;25.85;;;13.90;;
64313;SDS011;50650;48.180;11.524;2023-03-01T12:52:19;19.02;;;12.13;;
64313;SDS011;50650;48.180;11.524;2023-03-01T12:54:49;26.98;;;12.73;;
64313;SDS011;50650;48.180;11.524;2023-03-01T12:57:18;20.27;;;12.13;;
64313;SDS011;50650;48.180;11.524;2023-03-01T12:59:51;20.45;;;12.10;;
64313;SDS011;50650;48.180;11.524;2023-03-01T13:02:29;21.45;;;12.80;;
64313;SDS011;50650;48.180;11.524;2023-03-01T13:05:05;27.00;;;12.40;;
64313;SDS011;50650;48.180;11.524;2023-03-01T13:07:37;21.33;;;11.85;;
64313;SDS011;50650;48.180;11.524;2023-03-01T13:10:10;22.63;;;12.60;;
64313;SDS011;50650;48.180;11.524;2023-03-01T13:12:50;21.15;;;12.77;;
64313;SDS011;50650;48.180;11.524;2023-03-01T13:15:27;20.90;;;12.65;;
64313;SDS011;50650;48.180;11.524;2023-03-01T13:17:54;20.75;;;12.38;;
64313;SDS011;50650;48.180;11.524;2023-03-01T13:20:23;23.77;;;13.38;;
64313;SDS011;50650;48.180;11.524;2023-03-01T13:23:00;19.17;;;12.45;;
64313;SDS011;50650;48.180;11.524;2023-03-01T13:25:28;26.73;;;13.40;;
64313;SDS011;50650;48.180;11.524;2023-03-01T13:28:17;21.88;;;13.00;;
64313;SDS011;50650;48.180;11.524;2023-03-01T13:31:03;21.33;;;13.27;;
64313;SDS011;50650;48.180;11.524;2023-03-01T13:33:37;19.55;;;12.70;;
64313;SDS011;50650;48.180;11.524;2023-03-01T13:36:06;18.35;;;11.80;;
64313;SDS011;50650;48.180;11.524;2023-03-01T13:38:37;19.60;;;12.02;;
64313;SDS011;50650;48.180;11.524;2023-03-01T13:41:06;24.42;;;12.68;;
64313;SDS011;50650;48.180;11.524;2023-03-01T13:43:34;22.38;;;12.32;;
64313;SDS011;50650;48.180;11.524;2023-03-01T13:46:07;20.15;;;12.32;;
64313;SDS011;50650;48.180;11.524;2023-03-01T13:51:03;17.40;;;11.52;;
64313;SDS011;50650;48.180;11.524;2023-03-01T13:53:32;19.77;;;12.07;;
64313;SDS011;50650;48.180;11.524;2023-03-01T13:56:02;23.73;;;12.93;;
64313;SDS011;50650;48.180;11.524;2023-03-01T13:58:33;16.85;;;11.55;;
64313;SDS011;50650;48.180;11.524;2023-03-01T14:01:20;19.30;;;12.15;;
64313;SDS011;50650;48.180;11.524;2023-03-01T14:03:47;22.05;;;12.20;;
64313;SDS011;50650;48.180;11.524;2023-03-01T14:06:15;23.25;;;12.80;;
64313;SDS011;50650;48.180;11.524;2023-03-01T14:08:44;21.60;;;11.52;;
64313;SDS011;50650;48.180;11.524;2023-03-01T14:14:17;20.13;;;12.10;;
64313;SDS011;50650;48.180;11.524;2023-03-01T14:16:57;18.92;;;11.77;;
64313;SDS011;50650;48.180;11.524;2023-03-01T14:19:28;20.45;;;12.07;;
64313;SDS011;50650;48.180;11.524;2023-03-01T14:21:59;20.55;;;11.80;;
64313;SDS011;50650;48.180;11.524;2023-03-01T14:24:29;18.70;;;12.13;;
64313;SDS011;50650;48.180;11.524;2023-03-01T14:26:58;18.38;;;12.27;;
64313;SDS011;50650;48.180;11.524;2023-03-01T14:29:27;21.13;;;11.80;;
64313;SDS011;50650;48.180;11.524;2023-03-01T14:32:12;18.13;;;11.55;;
64313;SDS011;50650;48.180;11.524;2023-03-01T14:34:46;18.70;;;11.70;;
64313;SDS011;50650;48.180;11.524;2023-03-01T14:37:18;18.75;;;11.23;;
64313;SDS011;50650;48.180;11.524;2023-03-01T14:39:47;18.77;;;10.95;;
64313;SDS011;50650;48.180;11.524;2023-03-01T14:42:13;16.35;;;10.98;;
64313;SDS011;50650;48.180;11.524;2023-03-01T14:44:40;18.58;;;12.07;;